Time;durP1;ratioP1;P1;durP2;ratioP2;P2;SDS_P1;SDS_P2;PMS_P1;PMS_P2;Temp;Humidity;BMP_temperature;BMP_pressure;BME280_temperature;BME280_humidity;BME280_pressure;Samples;Min_cycle;Max_cycle;Signal;HPM_P1;HPM_P2
2021/12/30 00:00:52;;;;;;;3.07;0.60;;;;;;;12.17;100.00;98666.91;5011851;28;20676;-54
2021/12/30 00:03:18;;;;;;;3.50;0.70;;;;;;;12.17;100.00;98677.38;5012705;28;20193;-51
2021/12/30 00:05:45;;;;;;;1.80;0.63;;;;;;;12.16;100.00;98670.50;5012371;28;20210;-55
2021/12/30 00:08:12;;;;;;;1.50;0.70;;;;;;;12.17;100.00;98674.75;5012231;28;20181;-55
2021/12/30 00:10:41;;;;;;;1.03;0.70;;;;;;;12.16;100.00;98685.41;5011593;28;20190;-57
2021/12/30 00:13:09;;;;;;;1.53;0.50;;;;;;;12.22;100.00;98680.31;5012376;28;20265;-52
2021/12/30 00:15:37;;;;;;;1.67;0.57;;;;;;;12.25;100.00;98680.00;5035291;22;20237;-57
2021/12/30 00:18:06;;;;;;;0.70;0.50;;;;;;;12.38;100.00;98691.81;5012576;28;20197;-60
2021/12/30 00:20:33;;;;;;;4.50;0.90;;;;;;;12.39;100.00;98696.06;5011388;28;20187;-60
2021/12/30 00:23:02;;;;;;;1.00;0.50;;;;;;;12.45;100.00;98702.44;5012113;28;20208;-57
2021/12/30 00:25:37;;;;;;;0.30;0.30;;;;;;;12.42;100.00;98715.84;5011931;28;20234;-57
2021/12/30 00:28:04;;;;;;;0.50;0.40;;;;;;;12.46;100.00;98704.09;5012036;28;20552;-58
2021/12/30 00:30:31;;;;;;;1.67;0.60;;;;;;;12.48;100.00;98716.06;5010143;28;20191;-57
2021/12/30 00:33:00;;;;;;;1.80;0.60;;;;;;;12.50;100.00;98715.88;5011868;28;20221;-57
2021/12/30 00:35:27;;;;;;;1.80;0.60;;;;;;;12.47;100.00;98727.50;5011936;28;20206;-58
2021/12/30 00:37:54;;;;;;;2.07;0.60;;;;;;;12.50;100.00;98708.84;5011944;28;20183;-56
2021/12/30 00:40:21;;;;;;;2.37;0.80;;;;;;;12.50;100.00;98714.09;5011275;28;20186;-51
2021/12/30 00:42:48;;;;;;;2.57;0.60;;;;;;;12.57;100.00;98724.72;5011927;28;20240;-56
2021/12/30 00:45:15;;;;;;;1.47;0.50;;;;;;;12.62;100.00;98724.25;5011730;28;20213;-55
2021/12/30 00:47:41;;;;;;;2.73;0.80;;;;;;;12.66;99.22;98723.75;5011713;28;20196;-57
2021/12/30 00:50:10;;;;;;;2.20;0.57;;;;;;;12.60;99.88;98732.25;5011256;28;20191;-51
2021/12/30 00:52:37;;;;;;;2.03;0.47;;;;;;;12.55;100.00;98732.75;5013076;28;20214;-58
2021/12/30 00:55:05;;;;;;;0.97;0.57;;;;;;;12.61;98.19;98744.38;5015476;28;20236;-57
2021/12/30 00:57:31;;;;;;;1.00;0.60;;;;;;;12.67;97.52;98733.25;5015941;28;20186;-56
2021/12/30 00:59:58;;;;;;;1.07;0.40;;;;;;;12.62;98.50;98732.13;5014908;28;20191;-57
2021/12/30 01:02:25;;;;;;;3.70;0.60;;;;;;;12.63;98.11;98739.78;5015421;28;20189;-57
2021/12/30 01:04:52;;;;;;;2.03;0.73;;;;;;;12.68;97.64;98732.28;5015383;28;20215;-58
2021/12/30 01:07:21;;;;;;;2.13;0.70;;;;;;;12.72;96.80;98734.56;5015282;28;20678;-57
2021/12/30 01:09:48;;;;;;;0.60;0.50;;;;;;;12.69;96.93;98738.34;5014706;28;20189;-57
2021/12/30 01:12:16;;;;;;;1.70;0.50;;;;;;;12.74;96.95;98746.50;5015196;28;20682;-59
2021/12/30 01:14:46;;;;;;;0.50;0.50;;;;;;;12.77;96.38;98755.88;5014998;28;20225;-60
2021/12/30 01:17:19;;;;;;;0.80;0.70;;;;;;;12.78;96.62;98757.50;5015250;28;20197;-58
2021/12/30 01:19:46;;;;;;;2.13;0.57;;;;;;;12.71;97.10;98754.72;5014787;28;20683;-57
2021/12/30 01:22:15;;;;;;;2.43;0.63;;;;;;;12.75;96.68;98763.88;5013576;28;20236;-57
2021/12/30 01:24:44;;;;;;;0.80;0.60;;;;;;;12.77;96.71;98758.47;5015018;28;20207;-58
2021/12/30 01:27:11;;;;;;;0.83;0.50;;;;;;;12.69;98.22;98760.09;5015040;28;20190;-53
2021/12/30 01:29:39;;;;;;;2.00;0.40;;;;;;;12.70;97.51;98766.19;5014444;28;20620;-55
2021/12/30 01:32:07;;;;;;;1.17;0.40;;;;;;;12.73;97.25;98768.44;5014674;28;20214;-53
2021/12/30 01:34:34;;;;;;;0.33;0.33;;;;;;;12.78;96.70;98763.53;5014742;28;20261;-55
2021/12/30 01:37:03;;;;;;;3.13;0.40;;;;;;;12.74;97.30;98750.94;5014943;28;20282;-57
2021/12/30 01:39:31;;;;;;;1.30;0.43;;;;;;;12.75;96.34;98757.81;5014881;28;20664;-57
2021/12/30 01:42:00;;;;;;;2.00;0.50;;;;;;;12.69;97.67;98780.25;5014476;28;20273;-56
2021/12/30 01:44:28;;;;;;;1.03;0.33;;;;;;;12.72;95.89;98766.00;5014647;28;20229;-57
2021/12/30 01:46:56;;;;;;;1.57;0.37;;;;;;;12.72;96.14;98766.81;5014768;28;20237;-60
2021/12/30 01:49:24;;;;;;;1.13;0.40;;;;;;;12.77;96.32;98775.00;5014611;28;20281;-60
2021/12/30 01:51:52;;;;;;;4.13;0.43;;;;;;;12.74;96.53;98788.41;5013902;28;20277;-57
2021/12/30 01:54:19;;;;;;;1.43;0.43;;;;;;;12.79;95.00;98774.84;5014779;28;20215;-60
2021/12/30 01:56:46;;;;;;;2.17;0.50;;;;;;;12.82;95.42;98779.78;5014479;28;20270;-57
2021/12/30 01:59:15;;;;;;;1.60;0.50;;;;;;;12.84;95.23;98783.06;5013143;28;20194;-58
2021/12/30 02:01:42;;;;;;;1.17;0.40;;;;;;;12.79;96.35;98780.09;5013743;28;20674;-55
2021/12/30 02:04:08;;;;;;;0.60;0.40;;;;;;;12.77;97.06;98784.69;5013407;28;20237;-55
2021/12/30 02:06:35;;;;;;;3.63;0.40;;;;;;;12.74;98.28;98785.00;5014249;28;20563;-60
2021/12/30 02:09:02;;;;;;;3.57;0.60;;;;;;;12.75;98.41;98784.81;5014113;28;20194;-58
2021/12/30 02:11:30;;;;;;;0.90;0.40;;;;;;;12.67;98.79;98777.78;5013754;28;20668;-59
2021/12/30 02:13:57;;;;;;;1.23;0.50;;;;;;;12.67;98.71;98782.22;5014121;28;20273;-57
2021/12/30 02:16:25;;;;;;;1.20;0.40;;;;;;;12.62;100.00;98789.72;5014112;28;20736;-55
2021/12/30 02:18:52;;;;;;;1.77;0.40;;;;;;;12.57;100.00;98789.38;5014139;28;20274;-56
2021/12/30 02:21:21;;;;;;;1.30;0.50;;;;;;;12.57;100.00;98795.44;5013548;28;20533;-55
2021/12/30 02:23:48;;;;;;;0.57;0.37;;;;;;;12.62;99.61;98792.34;5013902;28;20218;-56
2021/12/30 02:26:18;;;;;;;2.30;0.40;;;;;;;12.60;99.42;98791.69;5013879;28;20232;-52
2021/12/30 02:28:45;;;;;;;0.53;0.33;;;;;;;12.62;99.04;98787.91;5014376;28;20543;-57
2021/12/30 02:31:15;;;;;;;1.33;0.30;;;;;;;12.79;97.69;98794.00;5013245;28;20212;-56
2021/12/30 02:33:42;;;;;;;1.90;0.47;;;;;;;12.65;99.59;98777.13;5013689;28;20298;-58
2021/12/30 02:36:10;;;;;;;1.80;0.47;;;;;;;12.59;100.00;98776.94;5013647;28;20333;-55
2021/12/30 02:38:42;;;;;;;0.67;0.47;;;;;;;12.52;100.00;98782.00;5013623;28;20273;-58
2021/12/30 02:41:13;;;;;;;0.77;0.50;;;;;;;12.49;100.00;98785.75;5013203;28;20309;-58
2021/12/30 02:43:40;;;;;;;0.70;0.43;;;;;;;12.50;100.00;98781.34;5013673;28;20190;-57
2021/12/30 02:46:07;;;;;;;0.90;0.50;;;;;;;12.55;100.00;98779.88;5013605;28;20205;-55
2021/12/30 02:48:36;;;;;;;1.73;0.50;;;;;;;12.58;100.00;98781.34;5013561;28;20640;-58
2021/12/30 02:51:06;;;;;;;1.57;0.50;;;;;;;12.51;100.00;98790.81;5012869;28;20193;-54
2021/12/30 02:53:34;;;;;;;2.87;0.50;;;;;;;12.52;100.00;98782.81;5013435;28;20645;-58
2021/12/30 02:56:03;;;;;;;3.60;0.30;;;;;;;12.48;100.00;98788.53;5013333;28;20219;-58
2021/12/30 02:58:30;;;;;;;2.00;0.40;;;;;;;12.45;100.00;98802.78;5013386;28;20265;-54
2021/12/30 03:00:59;;;;;;;0.83;0.50;;;;;;;12.48;100.00;98810.31;5012567;28;20724;-57
2021/12/30 03:03:26;;;;;;;1.37;0.40;;;;;;;12.44;100.00;98810.75;5013267;28;20581;-54
2021/12/30 03:05:57;;;;;;;0.87;0.20;;;;;;;12.41;100.00;98835.47;5013122;28;20245;-58
2021/12/30 03:08:25;;;;;;;0.53;0.30;;;;;;;12.38;100.00;98820.09;5013128;28;20771;-55
2021/12/30 03:10:52;;;;;;;2.10;0.30;;;;;;;12.30;100.00;98825.28;5012501;28;20190;-53
2021/12/30 03:13:29;;;;;;;0.63;0.20;;;;;;;12.22;100.00;98816.41;5013076;28;20296;-57
2021/12/30 03:15:57;;;;;;;1.67;0.37;;;;;;;12.10;100.00;98817.66;5012684;28;20269;-55
2021/12/30 03:18:24;;;;;;;0.43;0.30;;;;;;;12.09;100.00;98819.47;5012965;28;20221;-54
2021/12/30 03:20:51;;;;;;;1.60;0.30;;;;;;;12.03;100.00;98816.63;5012298;28;20269;-54
2021/12/30 03:23:18;;;;;;;2.90;0.40;;;;;;;12.00;100.00;98816.94;5012945;28;20190;-55
2021/12/30 03:25:45;;;;;;;2.13;0.60;;;;;;;11.95;100.00;98814.78;5012661;28;20245;-55
2021/12/30 03:28:12;;;;;;;0.70;0.37;;;;;;;11.91;100.00;98813.44;5012597;28;20268;-54
2021/12/30 03:30:40;;;;;;;1.20;0.30;;;;;;;11.90;100.00;98817.03;5012199;28;20273;-54
2021/12/30 03:33:07;;;;;;;0.43;0.30;;;;;;;11.91;100.00;98823.91;5012614;28;20209;-54
2021/12/30 03:35:34;;;;;;;0.30;0.30;;;;;;;11.92;100.00;98823.75;5012567;28;20209;-55
2021/12/30 03:38:01;;;;;;;1.87;0.30;;;;;;;11.90;100.00;98822.28;5012648;28;20222;-53
2021/12/30 03:40:28;;;;;;;1.73;0.33;;;;;;;11.94;100.00;98824.41;5011919;28;20270;-55
2021/12/30 03:42:55;;;;;;;0.87;0.30;;;;;;;11.91;100.00;98821.28;5011412;28;20645;-55
2021/12/30 03:45:22;;;;;;;1.30;0.37;;;;;;;11.94;100.00;98837.50;5012433;28;20213;-55
2021/12/30 03:47:53;;;;;;;0.57;0.20;;;;;;;11.97;100.00;98839.00;5011307;28;20285;-55
2021/12/30 03:50:23;;;;;;;0.93;0.30;;;;;;;11.99;100.00;98844.91;5011934;28;20187;-58
2021/12/30 03:52:53;;;;;;;0.40;0.23;;;;;;;12.02;100.00;98841.16;5012424;28;20201;-55
2021/12/30 03:55:22;;;;;;;0.30;0.30;;;;;;;11.99;100.00;98850.13;5012281;28;20210;-56
2021/12/30 03:57:50;;;;;;;0.90;0.30;;;;;;;12.04;100.00;98844.44;5012451;28;20229;-57
2021/12/30 04:00:18;;;;;;;0.70;0.20;;;;;;;12.04;100.00;98854.91;5011784;28;20223;-58
2021/12/30 04:02:45;;;;;;;1.43;0.20;;;;;;;12.05;100.00;98852.16;5012507;28;20248;-58
2021/12/30 04:05:13;;;;;;;0.40;0.30;;;;;;;12.05;100.00;98857.38;5012303;28;20245;-58
2021/12/30 04:07:40;;;;;;;0.40;0.20;;;;;;;12.13;100.00;98861.03;5012099;28;20214;-57
2021/12/30 04:10:09;;;;;;;0.20;0.20;;;;;;;12.16;100.00;98866.75;5011752;28;20296;-57
2021/12/30 04:12:37;;;;;;;0.50;0.10;;;;;;;12.14;100.00;98870.53;5012099;28;20197;-57
2021/12/30 04:15:04;;;;;;;1.70;0.30;;;;;;;12.21;100.00;98861.88;5012148;28;20226;-58
2021/12/30 04:17:31;;;;;;;1.50;0.40;;;;;;;12.29;100.00;98870.75;5012090;28;20278;-57
2021/12/30 04:19:58;;;;;;;0.50;0.30;;;;;;;12.37;100.00;98881.25;5011642;28;20278;-57
2021/12/30 04:22:26;;;;;;;1.07;0.43;;;;;;;12.39;100.00;98872.25;5011980;28;20664;-56
2021/12/30 04:24:53;;;;;;;0.40;0.20;;;;;;;12.38;100.00;98875.84;5012118;28;20714;-58
2021/12/30 04:27:20;;;;;;;1.23;0.30;;;;;;;12.39;100.00;98880.13;5012982;28;20204;-54
2021/12/30 04:29:46;;;;;;;0.77;0.20;;;;;;;12.47;100.00;98884.59;5015545;28;20274;-57
2021/12/30 04:32:13;;;;;;;0.20;0.10;;;;;;;12.51;100.00;98883.31;5015900;28;20189;-57
2021/12/30 04:34:40;;;;;;;0.73;0.20;;;;;;;12.59;100.00;98887.75;5015761;28;20206;-56
2021/12/30 04:37:07;;;;;;;0.10;0.10;;;;;;;12.59;100.00;98886.94;5015793;28;20217;-58
2021/12/30 04:39:36;;;;;;;0.30;0.20;;;;;;;12.58;100.00;98895.78;5014331;28;20277;-57
2021/12/30 04:42:03;;;;;;;0.40;0.30;;;;;;;12.64;100.00;98889.91;5015758;28;20272;-58
2021/12/30 04:44:31;;;;;;;0.23;0.20;;;;;;;12.65;100.00;98891.53;5015802;28;20216;-57
2021/12/30 04:46:58;;;;;;;1.13;0.20;;;;;;;12.66;100.00;98896.59;5015701;28;20563;-58
2021/12/30 04:49:27;;;;;;;2.10;0.20;;;;;;;12.63;100.00;98896.13;5016053;28;20429;-59
2021/12/30 04:51:54;;;;;;;0.67;0.10;;;;;;;12.68;100.00;98899.09;5015217;28;20190;-57
2021/12/30 04:54:21;;;;;;;0.87;0.37;;;;;;;12.63;100.00;98901.34;5015590;28;20221;-58
2021/12/30 04:56:50;;;;;;;0.50;0.20;;;;;;;12.61;100.00;98903.31;5015759;28;20190;-58
2021/12/30 04:59:17;;;;;;;0.13;0.10;;;;;;;12.58;100.00;98901.00;5015593;28;20186;-58
2021/12/30 05:01:44;;;;;;;0.20;0.20;;;;;;;12.60;100.00;98904.28;5014829;28;20270;-59
2021/12/30 05:04:11;;;;;;;0.63;0.17;;;;;;;12.65;100.00;98907.25;5015256;28;20649;-58
2021/12/30 05:06:38;;;;;;;0.10;0.10;;;;;;;12.64;100.00;98909.03;5015624;28;20664;-58
2021/12/30 05:09:08;;;;;;;0.30;0.10;;;;;;;12.67;100.00;98908.72;5015578;28;20289;-58
2021/12/30 05:11:35;;;;;;;0.67;0.20;;;;;;;12.68;100.00;98914.81;5014890;28;20217;-59
2021/12/30 05:14:03;;;;;;;0.30;0.20;;;;;;;12.66;100.00;98917.56;5014992;28;20202;-59
2021/12/30 05:16:30;;;;;;;2.10;0.20;;;;;;;12.67;100.00;98931.50;5015165;28;20195;-58
2021/12/30 05:18:57;;;;;;;0.10;0.10;;;;;;;12.67;100.00;98937.53;5015159;28;20240;-59
2021/12/30 05:21:24;;;;;;;2.03;0.20;;;;;;;12.70;100.00;98928.56;5014742;28;20203;-56
2021/12/30 05:23:51;;;;;;;0.20;0.20;;;;;;;12.79;100.00;98935.44;5015453;28;20278;-59
2021/12/30 05:26:18;;;;;;;0.20;0.20;;;;;;;12.80;100.00;98947.56;5015026;28;20286;-57
2021/12/30 05:28:46;;;;;;;0.30;0.10;;;;;;;12.90;99.47;98936.16;5014964;28;20230;-59
2021/12/30 05:31:14;;;;;;;0.47;0.10;;;;;;;12.84;100.00;98935.00;5014422;28;20182;-59
2021/12/30 05:33:41;;;;;;;0.13;0.10;;;;;;;12.88;99.25;98946.78;5014750;28;20220;-57
2021/12/30 05:36:07;;;;;;;0.70;0.20;;;;;;;12.94;98.73;98932.22;5014990;28;20222;-59
2021/12/30 05:38:34;;;;;;;0.17;0.13;;;;;;;12.87;99.77;98947.78;5013759;28;20191;-57
2021/12/30 05:41:01;;;;;;;1.83;0.20;;;;;;;12.83;100.00;98938.59;5014067;28;20680;-57
2021/12/30 05:43:28;;;;;;;1.40;0.20;;;;;;;12.83;99.96;98939.41;5014710;28;20180;-59
2021/12/30 05:45:54;;;;;;;0.40;0.10;;;;;;;12.77;100.00;98944.44;5014646;28;20282;-59
2021/12/30 05:48:23;;;;;;;1.53;0.20;;;;;;;12.83;100.00;98944.63;5013318;28;20706;-58
2021/12/30 05:50:50;;;;;;;0.10;0.10;;;;;;;12.80;100.00;98955.44;5014070;28;20190;-59
2021/12/30 05:53:17;;;;;;;0.20;0.20;;;;;;;12.83;100.00;98946.44;5014511;28;20214;-58
2021/12/30 05:55:43;;;;;;;0.70;0.37;;;;;;;12.84;99.88;98946.28;5014508;28;20214;-58
2021/12/30 05:58:10;;;;;;;7.90;3.57;;;;;;;12.83;99.80;98952.50;5014503;28;20190;-59
2021/12/30 06:00:37;;;;;;;1.03;0.70;;;;;;;12.81;100.00;98967.53;5014133;28;20609;-58
2021/12/30 06:03:04;;;;;;;2.50;1.83;;;;;;;12.87;99.08;98963.50;5014498;28;20265;-58
2021/12/30 06:05:32;;;;;;;4.93;3.07;;;;;;;12.84;99.70;98967.22;5014327;28;20300;-59
2021/12/30 06:07:59;;;;;;;1.87;0.90;;;;;;;12.84;100.00;98969.84;5014308;28;20244;-59
2021/12/30 06:10:26;;;;;;;4.07;2.60;;;;;;;12.88;99.62;98962.50;5013632;28;20189;-59
2021/12/30 06:12:52;;;;;;;0.70;0.60;;;;;;;12.81;100.00;98975.41;5012785;28;20214;-59
2021/12/30 06:15:19;;;;;;;2.57;2.37;;;;;;;12.85;99.67;98986.41;5014265;28;20253;-59
2021/12/30 06:17:46;;;;;;;0.77;0.63;;;;;;;12.87;99.69;98981.00;5014039;28;20278;-58
2021/12/30 06:20:14;;;;;;;0.70;0.67;;;;;;;12.84;99.80;98974.28;5013588;28;20278;-57
2021/12/30 06:22:44;;;;;;;2.00;0.33;;;;;;;12.84;99.83;98969.84;5013859;28;20262;-58
2021/12/30 06:25:12;;;;;;;2.30;0.40;;;;;;;12.89;98.76;98979.88;5013921;28;20592;-58
2021/12/30 06:27:39;;;;;;;1.03;0.77;;;;;;;12.88;99.64;98980.03;5013943;28;20198;-58
2021/12/30 06:30:08;;;;;;;1.60;1.50;;;;;;;12.90;99.44;98975.44;5013373;28;20226;-56
2021/12/30 06:32:34;;;;;;;0.97;0.60;;;;;;;12.93;98.80;98985.63;5013871;28;20280;-57
2021/12/30 06:35:02;;;;;;;2.50;0.50;;;;;;;12.94;98.90;98992.50;5013770;28;20225;-59
2021/12/30 06:37:30;;;;;;;0.10;0.10;;;;;;;12.93;99.07;98990.84;5013783;28;20225;-59
2021/12/30 06:39:58;;;;;;;1.27;0.10;;;;;;;12.89;99.34;98995.59;5013115;28;20201;-59
2021/12/30 06:42:25;;;;;;;0.30;0.25;;;;;;;12.92;98.63;99010.16;5013098;28;20525;-59
2021/12/30 06:44:52;;;;;;;0.20;0.20;;;;;;;12.93;98.40;98998.72;5013552;28;20257;-58
2021/12/30 06:47:19;;;;;;;0.20;0.20;;;;;;;12.92;98.98;99004.94;5012214;28;20231;-59
2021/12/30 06:49:46;;;;;;;2.80;0.50;;;;;;;12.97;98.24;99002.66;5012614;28;20715;-59
2021/12/30 06:52:13;;;;;;;0.30;0.30;;;;;;;12.98;98.19;99007.75;5013474;28;20273;-59
2021/12/30 06:54:40;;;;;;;0.50;0.50;;;;;;;12.98;97.96;99007.75;5013356;28;20293;-59
2021/12/30 06:57:11;;;;;;;0.47;0.47;;;;;;;13.06;97.43;99017.44;5013287;28;20196;-58
2021/12/30 06:59:38;;;;;;;0.43;0.30;;;;;;;13.15;96.27;99015.69;5012849;28;20640;-59
2021/12/30 07:02:06;;;;;;;2.57;0.30;;;;;;;13.09;96.52;99022.38;5013074;28;20192;-57
2021/12/30 07:04:34;;;;;;;0.10;0.10;;;;;;;13.22;94.74;99024.56;5013185;28;20202;-59
2021/12/30 07:07:01;;;;;;;0.20;0.20;;;;;;;13.10;96.76;99033.69;5013034;28;20195;-59
2021/12/30 07:09:28;;;;;;;0.63;0.30;;;;;;;13.05;97.83;99044.63;5013104;28;20745;-58
2021/12/30 07:11:55;;;;;;;0.20;0.20;;;;;;;13.02;98.66;99060.66;5012510;28;20560;-59
2021/12/30 07:14:25;;;;;;;0.40;0.40;;;;;;;12.89;100.00;99062.88;5012916;28;20234;-59
2021/12/30 07:16:52;;;;;;;1.00;0.40;;;;;;;12.85;100.00;99057.94;5013020;28;20195;-58
2021/12/30 07:19:19;;;;;;;0.43;0.30;;;;;;;12.78;100.00;99071.84;5012891;28;20190;-59
2021/12/30 07:21:46;;;;;;;0.50;0.40;;;;;;;12.77;100.00;99064.94;5012587;28;20261;-59
2021/12/30 07:24:13;;;;;;;0.67;0.30;;;;;;;12.70;100.00;99072.63;5012924;28;20712;-59
2021/12/30 07:26:40;;;;;;;0.30;0.30;;;;;;;12.68;100.00;99074.56;5012763;28;20716;-59
2021/12/30 07:29:07;;;;;;;0.30;0.23;;;;;;;12.68;100.00;99072.75;5012848;28;20236;-59
2021/12/30 07:31:35;;;;;;;0.90;0.53;;;;;;;12.66;100.00;99071.28;5012254;28;20571;-57
2021/12/30 07:34:02;;;;;;;1.60;0.30;;;;;;;12.67;100.00;99072.91;5011206;28;20222;-59
2021/12/30 07:36:29;;;;;;;0.30;0.23;;;;;;;12.69;100.00;99082.25;5012651;28;20194;-59
2021/12/30 07:38:55;;;;;;;0.93;0.20;;;;;;;12.72;100.00;99070.63;5012713;28;20958;-59
2021/12/30 07:41:22;;;;;;;0.10;0.10;;;;;;;12.67;100.00;99078.97;5012058;28;20218;-58
2021/12/30 07:43:49;;;;;;;0.40;0.20;;;;;;;12.65;100.00;99104.50;5012615;28;20191;-59
2021/12/30 07:46:16;;;;;;;0.43;0.20;;;;;;;12.63;100.00;99082.88;5012741;28;20211;-59
2021/12/30 07:48:45;;;;;;;0.27;0.20;;;;;;;12.70;100.00;99091.75;5012481;28;20198;-57
2021/12/30 07:51:12;;;;;;;0.33;0.20;;;;;;;12.70;100.00;99096.19;5012061;28;20367;-59
2021/12/30 07:53:39;;;;;;;0.20;0.20;;;;;;;12.74;100.00;99100.13;5012319;28;20208;-57
2021/12/30 07:56:07;;;;;;;0.80;0.30;;;;;;;12.78;100.00;99098.84;5012296;28;20708;-60
2021/12/30 07:58:35;;;;;;;2.13;0.20;;;;;;;12.82;100.00;99105.41;5012399;28;20197;-59
2021/12/30 08:01:02;;;;;;;0.20;0.20;;;;;;;12.84;100.00;99100.84;5011665;28;20687;-57
2021/12/30 08:03:29;;;;;;;1.00;0.60;;;;;;;12.84;100.00;99115.75;5011799;28;20279;-59
2021/12/30 08:05:57;;;;;;;1.13;0.70;;;;;;;12.86;100.00;99126.91;5012178;28;20290;-57
2021/12/30 08:08:24;;;;;;;0.20;0.20;;;;;;;12.89;100.00;99131.84;5012380;28;20273;-57
2021/12/30 08:10:51;;;;;;;3.00;0.40;;;;;;;12.87;100.00;99132.94;5011783;28;20214;-58
2021/12/30 08:13:18;;;;;;;1.83;1.20;;;;;;;12.88;100.00;99134.59;5012093;28;20197;-56
2021/12/30 08:15:46;;;;;;;4.43;3.83;;;;;;;12.91;100.00;99122.03;5011992;28;20361;-57
2021/12/30 08:18:13;;;;;;;0.60;0.47;;;;;;;12.92;100.00;99130.69;5012297;28;20292;-60
2021/12/30 08:20:40;;;;;;;1.27;0.20;;;;;;;12.94;100.00;99118.25;5011708;28;20226;-57
2021/12/30 08:23:27;;;;;;;0.10;0.10;;;;;;;12.97;100.00;99118.78;5012502;28;20664;-59
2021/12/30 08:26:13;;;;;;;1.93;1.43;;;;;;;13.03;100.00;99122.59;5012386;28;20963;-57
2021/12/30 08:28:40;;;;;;;7.30;4.90;;;;;;;13.09;100.00;99124.59;5012141;28;20191;-57
2021/12/30 08:31:07;;;;;;;2.33;1.63;;;;;;;13.09;100.00;99116.72;5011659;28;20599;-60
2021/12/30 08:33:34;;;;;;;13.47;8.40;;;;;;;13.14;99.94;99111.84;5011928;28;20270;-57
2021/12/30 08:36:01;;;;;;;3.97;1.83;;;;;;;13.11;99.93;99114.78;5011996;28;20261;-57
2021/12/30 08:38:29;;;;;;;1.00;0.90;;;;;;;13.16;99.25;99127.44;5011966;28;20218;-59
2021/12/30 08:40:56;;;;;;;4.10;1.73;;;;;;;13.10;99.72;99128.84;5011770;28;20218;-58
2021/12/30 08:43:23;;;;;;;4.03;2.20;;;;;;;13.12;99.10;99133.94;5012153;28;20648;-57
2021/12/30 08:45:50;;;;;;;23.57;12.87;;;;;;;13.14;99.08;99129.38;5011944;28;20699;-59
2021/12/30 08:48:36;;;;;;;1.30;1.10;;;;;;;13.13;98.73;99127.75;5012190;28;20197;-55
2021/12/30 08:51:04;;;;;;;0.70;0.70;;;;;;;13.18;99.11;99138.56;5011224;28;20186;-59
2021/12/30 08:53:33;;;;;;;1.03;0.63;;;;;;;13.18;98.31;99133.34;5011694;28;20281;-57
2021/12/30 08:56:00;;;;;;;0.70;0.50;;;;;;;13.24;97.54;99139.75;5010455;28;20219;-58
2021/12/30 08:58:27;;;;;;;3.30;1.00;;;;;;;13.27;96.71;99134.19;5011863;28;20661;-59
2021/12/30 09:00:54;;;;;;;4.07;2.43;;;;;;;13.26;97.33;99140.41;5011174;28;20552;-59
2021/12/30 09:03:20;;;;;;;2.07;1.23;;;;;;;13.25;97.80;99147.44;5012043;28;20191;-57
2021/12/30 09:05:47;;;;;;;2.83;1.90;;;;;;;13.32;95.77;99139.78;5011572;28;20215;-58
2021/12/30 09:08:14;;;;;;;2.53;1.43;;;;;;;13.40;96.01;99141.63;5011768;28;20222;-59
2021/12/30 09:10:45;;;;;;;1.03;0.73;;;;;;;13.51;94.57;99136.13;5011513;28;20196;-57
2021/12/30 09:13:15;;;;;;;0.77;0.53;;;;;;;13.61;93.28;99135.19;5012553;28;20266;-57
2021/12/30 09:15:43;;;;;;;1.10;0.60;;;;;;;13.64;94.06;99135.72;5015296;28;20216;-56
2021/12/30 09:18:10;;;;;;;2.80;2.50;;;;;;;13.57;94.33;99146.00;5015227;28;20258;-57
2021/12/30 09:20:39;;;;;;;0.80;0.80;;;;;;;13.62;93.18;99140.28;5014692;28;20195;-59
2021/12/30 09:23:07;;;;;;;0.50;0.40;;;;;;;13.67;94.47;99139.81;5015133;28;20191;-60
2021/12/30 09:25:35;;;;;;;0.50;0.30;;;;;;;13.78;92.39;99133.47;5015240;28;20517;-59
2021/12/30 09:28:04;;;;;;;0.30;0.20;;;;;;;13.70;93.76;99132.47;5015009;28;20222;-57
2021/12/30 09:30:31;;;;;;;0.43;0.30;;;;;;;13.77;93.78;99129.19;5014508;28;20243;-60
2021/12/30 09:33:00;;;;;;;0.30;0.30;;;;;;;13.71;93.33;99125.41;5013857;28;20576;-57
2021/12/30 09:35:27;;;;;;;0.10;0.10;;;;;;;13.82;93.11;99122.47;5014846;28;20712;-59
2021/12/30 09:37:54;;;;;;;0.50;0.30;;;;;;;13.86;93.05;99118.56;5014930;28;20187;-57
2021/12/30 09:40:22;;;;;;;0.30;0.27;;;;;;;14.00;91.17;99114.47;5014797;28;20250;-59
2021/12/30 09:42:53;;;;;;;0.37;0.20;;;;;;;14.05;91.46;99126.28;5015040;28;20271;-57
2021/12/30 09:45:21;;;;;;;0.20;0.20;;;;;;;14.11;90.17;99134.38;5014856;28;20208;-60
2021/12/30 09:47:51;;;;;;;0.20;0.13;;;;;;;14.01;90.45;99133.69;5015275;28;20231;-56
2021/12/30 09:50:20;;;;;;;0.20;0.20;;;;;;;13.92;90.71;99132.03;5014087;28;20262;-57
2021/12/30 09:52:47;;;;;;;1.13;0.23;;;;;;;14.00;90.79;99139.91;5014679;28;20643;-56
2021/12/30 09:55:14;;;;;;;1.57;0.20;;;;;;;14.10;88.57;99139.75;5014396;28;20243;-59
2021/12/30 09:57:41;;;;;;;0.10;0.10;;;;;;;14.10;89.49;99140.59;5015021;28;20267;-57
2021/12/30 10:00:13;;;;;;;0.50;0.20;;;;;;;13.99;89.25;99149.59;5014133;28;20200;-59
2021/12/30 10:02:42;;;;;;;1.03;0.60;;;;;;;14.04;89.84;99151.75;5014476;28;20191;-59
2021/12/30 10:05:12;;;;;;;0.93;0.50;;;;;;;14.00;90.65;99159.09;5013063;28;20274;-57
2021/12/30 10:07:41;;;;;;;0.30;0.30;;;;;;;13.98;90.70;99162.88;5014327;28;20188;-58
2021/12/30 10:10:26;;;;;;;1.33;0.20;;;;;;;13.90;90.62;99150.53;5013649;28;20191;-57
2021/12/30 10:12:53;;;;;;;0.50;0.17;;;;;;;13.85;91.17;99158.91;5014266;28;20276;-59
2021/12/30 10:15:24;;;;;;;1.03;0.20;;;;;;;13.80;91.66;99155.94;5013976;28;20218;-55
2021/12/30 10:17:56;;;;;;;0.20;0.20;;;;;;;13.75;90.23;99166.06;5014237;28;20196;-59
2021/12/30 10:20:27;;;;;;;0.27;0.20;;;;;;;13.73;90.91;99165.41;5013596;28;20192;-56
2021/12/30 10:22:55;;;;;;;0.13;0.13;;;;;;;13.77;91.08;99171.19;5014062;28;20177;-57
2021/12/30 10:25:27;;;;;;;0.10;0.10;;;;;;;13.89;89.16;99156.75;5013181;28;20211;-57
2021/12/30 10:27:55;;;;;;;0.40;0.37;;;;;;;13.87;90.19;99169.22;5013889;28;20191;-57
2021/12/30 10:30:32;;;;;;;0.53;0.20;;;;;;;13.79;90.88;99158.69;5013904;28;20642;-56
2021/12/30 10:33:15;;;;;;;0.20;0.20;;;;;;;13.85;90.43;99161.53;5012680;28;20560;-59
2021/12/30 10:35:42;;;;;;;0.33;0.20;;;;;;;13.83;90.64;99176.59;5014016;28;20230;-58
2021/12/30 10:38:11;;;;;;;0.33;0.30;;;;;;;13.84;90.27;99162.50;5013777;28;20184;-59
2021/12/30 10:40:41;;;;;;;2.20;0.40;;;;;;;13.87;90.61;99150.84;5012153;28;20203;-59
2021/12/30 10:43:20;;;;;;;0.20;0.10;;;;;;;13.95;89.91;99144.81;5013803;28;20270;-58
2021/12/30 10:46:06;;;;;;;0.37;0.20;;;;;;;14.07;89.86;99151.41;5014304;28;20208;-59
2021/12/30 10:48:46;;;;;;;1.60;0.40;;;;;;;14.00;89.87;99156.47;5014222;28;20662;-58
2021/12/30 10:51:15;;;;;;;0.93;0.20;;;;;;;14.16;88.69;99152.25;5013123;28;20684;-57
2021/12/30 10:53:42;;;;;;;0.30;0.30;;;;;;;14.14;87.82;99154.22;5012338;28;20189;-58
2021/12/30 10:56:29;;;;;;;0.97;0.27;;;;;;;14.11;88.54;99159.78;5013196;28;20269;-58
2021/12/30 10:59:12;;;;;;;0.63;0.20;;;;;;;14.08;88.52;99158.31;5013402;28;20566;-58
2021/12/30 11:01:40;;;;;;;0.30;0.30;;;;;;;14.07;88.33;99161.09;5012712;28;20648;-59
2021/12/30 11:04:09;;;;;;;0.20;0.20;;;;;;;13.98;89.04;99153.19;5013212;28;20189;-57
2021/12/30 11:06:37;;;;;;;1.30;0.13;;;;;;;14.11;87.20;99162.41;5013133;28;20613;-58
2021/12/30 11:09:10;;;;;;;0.20;0.20;;;;;;;14.05;88.05;99148.13;5013167;28;20211;-57
2021/12/30 11:11:41;;;;;;;1.77;0.30;;;;;;;14.01;88.80;99152.88;5012762;28;20522;-57
2021/12/30 11:14:09;;;;;;;0.20;0.20;;;;;;;13.99;89.49;99146.97;5012970;28;20191;-58
2021/12/30 11:16:57;;;;;;;0.23;0.20;;;;;;;13.95;89.15;99148.25;5013135;28;20626;-59
2021/12/30 11:19:27;;;;;;;0.80;0.30;;;;;;;13.95;89.46;99148.25;5013012;28;20192;-59
2021/12/30 11:21:54;;;;;;;0.30;0.20;;;;;;;14.10;88.33;99139.75;5012214;28;20280;-58
2021/12/30 11:24:21;;;;;;;1.40;0.20;;;;;;;13.96;88.80;99134.16;5012901;28;20223;-58
2021/12/30 11:26:48;;;;;;;0.30;0.30;;;;;;;13.95;88.86;99139.56;5012911;28;20657;-57
2021/12/30 11:29:15;;;;;;;0.20;0.20;;;;;;;14.01;88.48;99137.13;5012871;28;20179;-58
2021/12/30 11:31:42;;;;;;;0.40;0.37;;;;;;;14.01;88.65;99131.06;5012335;28;20196;-59
2021/12/30 11:34:09;;;;;;;0.70;0.20;;;;;;;13.98;88.89;99129.56;5012976;28;20192;-58